Time,TemperatureF,DewpointF,PressureIn,WindDirection,WindDirectionDegrees,WindSpeedMPH,WindSpeedGustMPH,Humidity,HourlyPrecipIn,Conditions,Clouds,dailyrainin,SoftwareType,DateUTC
2013-08-21 00:01:00,63.1,62.2,30.12,West,277,0.0,0.0,97,0.00,,,0.00,VWS V14.01,2013-08-21 04:01:00,
2013-08-21 00:02:00,63.1,62.2,30.12,West,277,0.0,0.0,97,0.00,,,0.00,VWS V14.01,2013-08-21 04:02:00,
2013-08-21 00:07:00,62.9,62.0,30.12,West,277,0.0,0.0,97,0.00,,,0.00,VWS V14.01,2013-08-21 04:07:00,
2013-08-21 00:12:00,62.8,61.9,30.12,West,277,0.0,0.0,97,0.00,,,0.00,VWS V14.01,2013-08-21 04:12:00,
2013-08-21 00:17:00,62.8,61.9,30.12,West,277,0.0,0.0,97,0.00,,,0.00,VWS V14.01,2013-08-21 04:17:00,
2013-08-21 00:22:00,62.7,61.8,30.12,West,277,0.0,0.0,97,0.00,,,0.00,VWS V14.01,2013-08-21 04:22:00,
2013-08-21 00:28:00,62.6,61.7,30.12,West,277,0.0,0.0,97,0.00,,,0.00,VWS V14.01,2013-08-21 04:28:00,
2013-08-21 00:33:00,62.5,61.6,30.12,West,277,0.0,0.0,97,0.00,,,0.00,VWS V14.01,2013-08-21 04:33:00,
2013-08-21 00:38:00,62.5,61.6,30.12,West,277,0.0,0.0,97,0.00,,,0.00,VWS V14.01,2013-08-21 04:38:00,
2013-08-21 00:43:00,62.4,61.5,30.12,West,277,0.0,0.0,97,0.00,,,0.00,VWS V14.01,2013-08-21 04:43:00,
2013-08-21 00:48:00,62.2,61.3,30.12,West,277,0.0,0.0,97,0.00,,,0.00,VWS V14.01,2013-08-21 04:48:00,
2013-08-21 00:53:00,62.1,61.2,30.12,West,277,0.0,0.0,97,0.00,,,0.00,VWS V14.01,2013-08-21 04:53:00,
2013-08-21 00:58:00,62.1,61.2,30.12,West,277,0.0,0.0,97,0.00,,,0.00,VWS V14.01,2013-08-21 04:58:00,
2013-08-21 01:03:00,62.1,61.2,30.12,West,277,0.0,0.0,97,0.00,,,0.00,VWS V14.01,2013-08-21 05:03:00,
2013-08-21 01:08:00,62.0,61.1,30.12,West,277,0.0,0.0,97,0.00,,,0.00,VWS V14.01,2013-08-21 05:08:00,
2013-08-21 01:14:00,62.0,61.1,30.12,West,277,0.0,0.0,97,0.00,,,0.00,VWS V14.01,2013-08-21 05:14:00,
2013-08-21 01:19:00,61.8,60.9,30.12,West,277,0.0,0.0,97,0.00,,,0.00,VWS V14.01,2013-08-21 05:19:00,
2013-08-21 01:24:00,61.6,60.7,30.12,West,277,0.0,0.0,97,0.00,,,0.00,VWS V14.01,2013-08-21 05:24:00,
2013-08-21 01:29:00,61.4,60.5,30.12,West,277,0.0,0.0,97,0.00,,,0.00,VWS V14.01,2013-08-21 05:29:00,
2013-08-21 01:34:00,61.3,60.4,30.12,West,277,0.0,0.0,97,0.00,,,0.00,VWS V14.01,2013-08-21 05:34:00,
2013-08-21 01:39:00,61.1,60.2,30.12,West,277,0.0,0.0,97,0.00,,,0.00,VWS V14.01,2013-08-21 05:39:00,
2013-08-21 01:44:00,60.9,60.0,30.12,West,277,0.0,0.0,97,0.00,,,0.00,VWS V14.01,2013-08-21 05:44:00,
2013-08-21 01:49:00,60.7,59.8,30.12,West,277,0.0,0.0,97,0.00,,,0.00,VWS V14.01,2013-08-21 05:49:00,
2013-08-21 01:54:00,60.6,59.8,30.12,West,277,0.0,0.0,97,0.00,,,0.00,VWS V14.01,2013-08-21 05:54:00,
2013-08-21 01:59:00,60.6,59.8,30.13,West,277,0.0,0.0,97,0.00,,,0.00,VWS V14.01,2013-08-21 05:59:00,
2013-08-21 02:05:00,60.5,59.7,30.12,West,277,0.0,0.0,97,0.00,,,0.00,VWS V14.01,2013-08-21 06:05:00,
2013-08-21 02:10:00,60.4,59.8,30.12,West,277,0.0,0.0,98,0.00,,,0.00,VWS V14.01,2013-08-21 06:10:00,
2013-08-21 02:15:00,60.4,59.8,30.12,West,277,0.0,0.0,98,0.00,,,0.00,VWS V14.01,2013-08-21 06:15:00,
2013-08-21 02:20:00,60.3,59.7,30.12,West,277,0.0,0.0,98,0.00,,,0.00,VWS V14.01,2013-08-21 06:20:00,
2013-08-21 02:25:00,60.2,59.6,30.12,West,277,0.0,0.0,98,0.00,,,0.00,VWS V14.01,2013-08-21 06:25:00,
2013-08-21 02:30:00,60.0,59.2,30.12,West,277,0.0,0.0,97,0.00,,,0.00,VWS V14.01,2013-08-21 06:30:00,
2013-08-21 02:35:00,59.9,59.3,30.12,West,277,0.0,0.0,98,0.00,,,0.00,VWS V14.01,2013-08-21 06:35:00,
2013-08-21 02:40:00,59.9,59.3,30.12,West,277,0.0,0.0,98,0.00,,,0.00,VWS V14.01,2013-08-21 06:40:00,
2013-08-21 02:45:00,59.8,59.2,30.12,West,277,0.0,0.0,98,0.00,,,0.00,VWS V14.01,2013-08-21 06:45:00,
2013-08-21 02:51:00,59.7,59.1,30.12,West,277,0.0,0.0,98,0.00,,,0.00,VWS V14.01,2013-08-21 06:51:00,
2013-08-21 02:56:00,59.7,59.1,30.12,West,277,0.0,0.0,98,0.00,,,0.00,VWS V14.01,2013-08-21 06:56:00,
2013-08-21 03:01:00,59.7,59.1,30.12,West,277,0.0,0.0,98,0.00,,,0.00,VWS V14.01,2013-08-21 07:01:00,
2013-08-21 03:06:00,59.8,59.2,30.12,West,277,0.0,0.0,98,0.00,,,0.00,VWS V14.01,2013-08-21 07:06:00,
2013-08-21 03:11:00,59.7,59.1,30.12,West,277,0.0,0.0,98,0.00,,,0.00,VWS V14.01,2013-08-21 07:11:00,
2013-08-21 03:16:00,59.6,59.0,30.12,West,277,0.0,0.0,98,0.00,,,0.00,VWS V14.01,2013-08-21 07:16:00,
2013-08-21 03:21:00,59.5,58.9,30.12,West,277,0.0,0.0,98,0.00,,,0.00,VWS V14.01,2013-08-21 07:21:00,
2013-08-21 03:26:00,59.3,58.7,30.12,West,277,0.0,0.0,98,0.00,,,0.00,VWS V14.01,2013-08-21 07:26:00,
2013-08-21 03:32:00,59.2,58.6,30.12,West,277,0.0,0.0,98,0.00,,,0.00,VWS V14.01,2013-08-21 07:32:00,
2013-08-21 03:37:00,59.0,58.4,30.12,West,277,0.0,0.0,98,0.00,,,0.00,VWS V14.01,2013-08-21 07:37:00,
2013-08-21 03:42:00,59.0,58.4,30.12,West,277,0.0,0.0,98,0.00,,,0.00,VWS V14.01,2013-08-21 07:42:00,
2013-08-21 03:47:00,59.0,58.4,30.13,West,277,0.0,0.0,98,0.00,,,0.00,VWS V14.01,2013-08-21 07:47:00,
2013-08-21 03:52:00,59.1,58.5,30.13,West,277,0.0,0.0,98,0.00,,,0.00,VWS V14.01,2013-08-21 07:52:00,
2013-08-21 03:57:00,59.1,58.5,30.12,West,277,0.0,0.0,98,0.00,,,0.00,VWS V14.01,2013-08-21 07:57:00,
2013-08-21 04:02:00,58.9,58.3,30.13,West,277,0.0,0.0,98,0.00,,,0.00,VWS V14.01,2013-08-21 08:02:00,
2013-08-21 04:07:00,58.9,58.3,30.13,West,277,0.0,0.0,98,0.00,,,0.00,VWS V14.01,2013-08-21 08:07:00,
2013-08-21 04:12:00,58.7,58.1,30.13,West,277,0.0,0.0,98,0.00,,,0.00,VWS V14.01,2013-08-21 08:12:00,
2013-08-21 04:18:00,58.7,58.1,30.13,West,277,0.0,0.0,98,0.00,,,0.00,VWS V14.01,2013-08-21 08:18:00,
2013-08-21 04:23:00,58.6,58.0,30.13,West,277,0.0,0.0,98,0.00,,,0.00,VWS V14.01,2013-08-21 08:23:00,
2013-08-21 04:28:00,58.5,57.9,30.13,West,277,0.0,0.0,98,0.00,,,0.00,VWS V14.01,2013-08-21 08:28:00,
2013-08-21 04:33:00,58.5,57.9,30.13,West,277,0.0,0.0,98,0.00,,,0.00,VWS V14.01,2013-08-21 08:33:00,
2013-08-21 04:38:00,58.4,57.8,30.13,West,277,0.0,0.0,98,0.00,,,0.00,VWS V14.01,2013-08-21 08:38:00,
2013-08-21 04:43:00,58.2,57.6,30.14,West,277,0.0,0.0,98,0.00,,,0.00,VWS V14.01,2013-08-21 08:43:00,
2013-08-21 04:48:00,58.1,57.5,30.14,West,277,0.0,0.0,98,0.00,,,0.00,VWS V14.01,2013-08-21 08:48:00,
2013-08-21 04:53:00,57.9,57.3,30.14,West,277,0.0,0.0,98,0.00,,,0.00,VWS V14.01,2013-08-21 08:53:00,
2013-08-21 04:59:00,57.8,57.2,30.13,West,277,0.0,0.0,98,0.00,,,0.00,VWS V14.01,2013-08-21 08:59:00,
2013-08-21 05:04:00,57.7,57.1,30.13,West,277,0.0,0.0,98,0.00,,,0.00,VWS V14.01,2013-08-21 09:04:00,
2013-08-21 05:09:00,57.7,57.1,30.14,West,277,0.0,0.0,98,0.00,,,0.00,VWS V14.01,2013-08-21 09:09:00,
2013-08-21 05:14:00,57.6,57.0,30.14,West,277,0.0,0.0,98,0.00,,,0.00,VWS V14.01,2013-08-21 09:14:00,
2013-08-21 05:19:00,57.6,57.0,30.14,West,277,0.0,0.0,98,0.00,,,0.00,VWS V14.01,2013-08-21 09:19:00,
2013-08-21 05:24:00,57.5,56.9,30.14,West,277,0.0,0.0,98,0.00,,,0.00,VWS V14.01,2013-08-21 09:24:00,
2013-08-21 05:29:00,57.5,56.9,30.14,West,277,0.0,0.0,98,0.00,,,0.00,VWS V14.01,2013-08-21 09:29:00,
2013-08-21 05:34:00,57.4,56.8,30.14,West,277,0.0,0.0,98,0.00,,,0.00,VWS V14.01,2013-08-21 09:34:00,
2013-08-21 05:39:00,57.3,56.7,30.14,West,277,0.0,0.0,98,0.00,,,0.00,VWS V14.01,2013-08-21 09:39:00,
2013-08-21 05:45:00,57.3,56.7,30.14,West,277,0.0,0.0,98,0.00,,,0.00,VWS V14.01,2013-08-21 09:45:00,
2013-08-21 05:50:00,57.3,57.0,30.15,West,277,0.0,0.0,99,0.00,,,0.00,VWS V14.01,2013-08-21 09:50:00,
2013-08-21 05:55:00,57.3,57.0,30.15,West,277,0.0,0.0,99,0.00,,,0.00,VWS V14.01,2013-08-21 09:55:00,
2013-08-21 06:00:00,57.2,56.6,30.15,West,277,0.0,0.0,98,0.00,,,0.00,VWS V14.01,2013-08-21 10:00:00,
2013-08-21 06:05:00,57.2,56.6,30.15,West,277,0.0,0.0,98,0.00,,,0.00,VWS V14.01,2013-08-21 10:05:00,
2013-08-21 06:10:00,57.1,56.5,30.15,West,277,0.0,0.0,98,0.00,,,0.00,VWS V14.01,2013-08-21 10:10:00,
2013-08-21 06:15:00,57.1,56.5,30.16,West,277,0.0,0.0,98,0.00,,,0.00,VWS V14.01,2013-08-21 10:15:00,
2013-08-21 06:21:00,57.1,56.5,30.16,West,277,0.0,0.0,98,0.00,,,0.00,VWS V14.01,2013-08-21 10:21:00,
2013-08-21 06:26:00,57.0,56.4,30.16,West,277,0.0,0.0,98,0.00,,,0.00,VWS V14.01,2013-08-21 10:26:00,
2013-08-21 06:31:00,57.0,56.7,30.16,West,277,0.0,0.0,99,0.00,,,0.00,VWS V14.01,2013-08-21 10:31:00,
2013-08-21 06:36:00,57.1,56.8,30.16,West,277,0.0,0.0,99,0.00,,,0.00,VWS V14.01,2013-08-21 10:36:00,
2013-08-21 06:41:00,57.1,56.8,30.16,West,277,0.0,0.0,99,0.00,,,0.00,VWS V14.01,2013-08-21 10:41:00,
2013-08-21 06:46:00,57.1,56.8,30.16,West,277,0.0,0.0,99,0.00,,,0.00,VWS V14.01,2013-08-21 10:46:00,
2013-08-21 06:51:00,57.1,56.8,30.16,West,277,0.0,0.0,99,0.00,,,0.00,VWS V14.01,2013-08-21 10:51:00,
2013-08-21 06:56:00,57.1,56.8,30.16,West,277,0.0,0.0,99,0.00,,,0.00,VWS V14.01,2013-08-21 10:56:00,
2013-08-21 07:01:00,57.3,57.0,30.16,West,277,0.0,0.0,99,0.00,,,0.00,VWS V14.01,2013-08-21 11:01:00,
2013-08-21 07:07:00,57.5,57.2,30.16,West,277,0.0,0.0,99,0.00,,,0.00,VWS V14.01,2013-08-21 11:07:00,
2013-08-21 07:12:00,57.8,57.5,30.16,West,277,0.0,0.0,99,0.00,,,0.00,VWS V14.01,2013-08-21 11:12:00,
2013-08-21 07:17:00,58.0,57.7,30.17,West,277,0.0,0.0,99,0.00,,,0.00,VWS V14.01,2013-08-21 11:17:00,
2013-08-21 07:22:00,58.3,58.0,30.17,West,277,0.0,0.0,99,0.00,,,0.00,VWS V14.01,2013-08-21 11:22:00,
2013-08-21 07:27:00,58.6,58.3,30.17,West,277,0.0,0.0,99,0.00,,,0.00,VWS V14.01,2013-08-21 11:27:00,
2013-08-21 07:32:00,59.2,58.9,30.17,West,277,0.0,0.0,99,0.00,,,0.00,VWS V14.01,2013-08-21 11:32:00,
2013-08-21 07:37:00,60.2,59.9,30.17,West,277,0.0,0.0,99,0.00,,,0.00,VWS V14.01,2013-08-21 11:37:00,
2013-08-21 07:42:00,60.8,60.8,30.17,West,277,0.0,0.0,100,0.00,,,0.00,VWS V14.01,2013-08-21 11:42:00,
2013-08-21 07:48:00,61.1,60.8,30.17,West,277,0.0,0.0,99,0.00,,,0.00,VWS V14.01,2013-08-21 11:48:00,
2013-08-21 07:53:00,62.0,62.0,30.17,West,277,0.0,0.0,100,0.00,,,0.00,VWS V14.01,2013-08-21 11:53:00,
2013-08-21 07:58:00,62.8,62.8,30.17,West,277,0.0,0.0,100,0.00,,,0.00,VWS V14.01,2013-08-21 11:58:00,
2013-08-21 08:03:00,63.7,63.7,30.17,West,277,0.0,0.0,100,0.00,,,0.00,VWS V14.01,2013-08-21 12:03:00,
2013-08-21 08:08:00,64.2,63.9,30.17,West,277,0.0,0.0,99,0.00,,,0.00,VWS V14.01,2013-08-21 12:08:00,
2013-08-21 08:13:00,64.3,64.0,30.17,West,277,0.0,0.0,99,0.00,,,0.00,VWS V14.01,2013-08-21 12:13:00,
2013-08-21 08:18:00,64.9,64.6,30.17,West,277,0.0,0.0,99,0.00,,,0.00,VWS V14.01,2013-08-21 12:18:00,
2013-08-21 08:23:00,65.4,65.1,30.17,West,277,0.0,0.0,99,0.00,,,0.00,VWS V14.01,2013-08-21 12:23:00,
2013-08-21 08:28:00,66.1,65.5,30.17,West,277,0.0,0.0,98,0.00,,,0.00,VWS V14.01,2013-08-21 12:28:00,
2013-08-21 08:34:00,67.2,66.3,30.17,West,277,0.0,0.0,97,0.00,,,0.00,VWS V14.01,2013-08-21 12:34:00,
2013-08-21 08:39:00,67.7,66.2,30.17,West,277,0.0,0.0,95,0.00,,,0.00,VWS V14.01,2013-08-21 12:39:00,
2013-08-21 08:44:00,68.1,66.3,30.16,West,277,0.0,0.0,94,0.00,,,0.00,VWS V14.01,2013-08-21 12:44:00,
2013-08-21 08:49:00,68.6,66.5,30.16,West,277,0.0,0.0,93,0.00,,,0.00,VWS V14.01,2013-08-21 12:49:00,
2013-08-21 08:54:00,69.4,67.3,30.16,West,277,0.0,0.0,93,0.00,,,0.00,VWS V14.01,2013-08-21 12:54:00,
2013-08-21 08:59:00,70.1,67.7,30.16,West,277,0.0,0.0,92,0.00,,,0.00,VWS V14.01,2013-08-21 12:59:00,
2013-08-21 09:04:00,70.6,67.8,30.16,West,277,0.0,0.0,91,0.00,,,0.00,VWS V14.01,2013-08-21 13:04:00,
2013-08-21 09:09:00,71.3,68.2,30.16,West,277,0.0,0.0,90,0.00,,,0.00,VWS V14.01,2013-08-21 13:09:00,
2013-08-21 09:15:00,72.1,68.7,30.16,West,277,0.0,0.0,89,0.00,,,0.00,VWS V14.01,2013-08-21 13:15:00,
2013-08-21 09:20:00,73.1,68.7,30.16,West,277,0.0,0.0,86,0.00,,,0.00,VWS V14.01,2013-08-21 13:20:00,
2013-08-21 09:25:00,73.8,69.3,30.16,West,277,0.0,0.0,86,0.00,,,0.00,VWS V14.01,2013-08-21 13:25:00,
2013-08-21 09:30:00,74.3,69.5,30.16,West,277,0.0,0.0,85,0.00,,,0.00,VWS V14.01,2013-08-21 13:30:00,
2013-08-21 09:35:00,74.8,68.2,30.16,West,277,0.0,0.0,80,0.00,,,0.00,VWS V14.01,2013-08-21 13:35:00,
2013-08-21 09:40:00,75.4,69.5,30.16,West,277,0.0,0.0,82,0.00,,,0.00,VWS V14.01,2013-08-21 13:40:00,
2013-08-21 09:45:00,75.9,70.4,30.16,WSW,242,0.0,1.0,83,0.00,,,0.00,VWS V14.01,2013-08-21 13:45:00,
2013-08-21 09:50:00,76.4,70.5,30.16,WSW,242,0.0,1.0,82,0.00,,,0.00,VWS V14.01,2013-08-21 13:50:00,
2013-08-21 09:55:00,77.0,70.7,30.16,WSW,242,0.0,1.0,81,0.00,,,0.00,VWS V14.01,2013-08-21 13:55:00,
2013-08-21 10:01:00,77.6,70.2,30.16,WSW,242,0.0,0.0,78,0.00,,,0.00,VWS V14.01,2013-08-21 14:01:00,
2013-08-21 10:06:00,78.0,70.2,30.16,WSW,242,2.0,2.0,77,0.00,,,0.00,VWS V14.01,2013-08-21 14:06:00,
2013-08-21 10:11:00,78.4,70.6,30.16,WSW,242,0.0,2.0,77,0.00,,,0.00,VWS V14.01,2013-08-21 14:11:00,
2013-08-21 10:16:00,78.6,68.8,30.16,SW,229,0.0,2.0,72,0.00,,,0.00,VWS V14.01,2013-08-21 14:16:00,
2013-08-21 10:21:00,79.1,70.1,30.16,SSE,162,0.0,2.0,74,0.00,,,0.00,VWS V14.01,2013-08-21 14:21:00,
2013-08-21 10:26:00,79.4,69.2,30.16,SSE,157,0.0,2.0,71,0.00,,,0.00,VWS V14.01,2013-08-21 14:26:00,
2013-08-21 10:31:00,79.4,68.8,30.16,SSE,157,0.0,1.0,70,0.00,,,0.00,VWS V14.01,2013-08-21 14:31:00,
2013-08-21 10:36:00,79.9,70.9,30.16,SSE,154,0.0,1.0,74,0.00,,,0.00,VWS V14.01,2013-08-21 14:36:00,
2013-08-21 10:42:00,80.3,72.1,30.16,SSE,154,0.0,1.0,76,0.00,,,0.00,VWS V14.01,2013-08-21 14:42:00,
2013-08-21 10:47:00,80.7,71.7,30.16,SSE,154,0.0,1.0,74,0.00,,,0.00,VWS V14.01,2013-08-21 14:47:00,
2013-08-21 10:52:00,81.3,71.4,30.16,SSE,154,0.0,1.0,72,0.00,,,0.00,VWS V14.01,2013-08-21 14:52:00,
2013-08-21 10:57:00,81.6,72.5,30.16,SSE,154,1.0,2.0,74,0.00,,,0.00,VWS V14.01,2013-08-21 14:57:00,
2013-08-21 11:02:00,81.9,69.9,30.16,ESE,103,0.0,1.0,67,0.00,,,0.00,VWS V14.01,2013-08-21 15:02:00,
2013-08-21 11:07:00,82.3,71.1,30.16,ESE,103,2.0,2.0,69,0.00,,,0.00,VWS V14.01,2013-08-21 15:07:00,
2013-08-21 11:12:00,82.3,68.9,30.16,SSE,153,0.0,2.0,64,0.00,,,0.00,VWS V14.01,2013-08-21 15:12:00,
2013-08-21 11:17:00,82.3,68.5,30.16,SSE,153,0.0,2.0,63,0.00,,,0.00,VWS V14.01,2013-08-21 15:17:00,
2013-08-21 11:23:00,82.6,70.1,30.16,SSE,153,0.0,2.0,66,0.00,,,0.00,VWS V14.01,2013-08-21 15:23:00,
2013-08-21 11:28:00,82.9,69.0,30.16,SSE,153,0.0,2.0,63,0.00,,,0.00,VWS V14.01,2013-08-21 15:28:00,
2013-08-21 11:33:00,83.1,69.2,30.16,SSE,153,0.0,2.0,63,0.00,,,0.00,VWS V14.01,2013-08-21 15:33:00,
2013-08-21 11:38:00,83.1,68.7,30.16,ESE,115,0.0,2.0,62,0.00,,,0.00,VWS V14.01,2013-08-21 15:38:00,
2013-08-21 11:43:00,83.0,68.2,30.16,South,173,0.0,4.0,61,0.00,,,0.00,VWS V14.01,2013-08-21 15:43:00,
2013-08-21 11:48:00,82.5,67.2,30.16,ESE,108,0.0,4.0,60,0.00,,,0.00,VWS V14.01,2013-08-21 15:48:00,
2013-08-21 11:53:00,82.2,67.4,30.16,NNE,30,1.0,4.0,61,0.00,,,0.00,VWS V14.01,2013-08-21 15:53:00,
2013-08-21 11:58:00,82.0,67.7,30.15,North,360,0.0,5.0,62,0.00,,,0.00,VWS V14.01,2013-08-21 15:58:00,
2013-08-21 12:03:00,82.0,69.1,30.15,North,355,0.0,2.0,65,0.00,,,0.00,VWS V14.01,2013-08-21 16:03:00,
2013-08-21 12:09:00,82.0,66.3,30.15,NNE,13,0.0,5.0,59,0.00,,,0.00,VWS V14.01,2013-08-21 16:09:00,
2013-08-21 12:14:00,82.1,70.1,30.15,NNE,13,0.0,5.0,67,0.00,,,0.00,VWS V14.01,2013-08-21 16:14:00,
2013-08-21 12:19:00,82.1,68.3,30.15,ESE,116,0.0,5.0,63,0.00,,,0.00,VWS V14.01,2013-08-21 16:19:00,
2013-08-21 12:24:00,82.3,67.5,30.15,ESE,116,0.0,5.0,61,0.00,,,0.00,VWS V14.01,2013-08-21 16:24:00,
2013-08-21 12:29:00,82.3,68.5,30.14,NE,56,0.0,5.0,63,0.00,,,0.00,VWS V14.01,2013-08-21 16:29:00,
2013-08-21 12:34:00,82.4,67.6,30.14,SSE,153,0.0,1.0,61,0.00,,,0.00,VWS V14.01,2013-08-21 16:34:00,
2013-08-21 12:39:00,82.7,66.9,30.14,South,169,0.0,4.0,59,0.00,,,0.00,VWS V14.01,2013-08-21 16:39:00,
2013-08-21 12:44:00,82.9,66.1,30.14,South,169,1.0,4.0,57,0.00,,,0.00,VWS V14.01,2013-08-21 16:44:00,
2013-08-21 12:50:00,83.0,66.2,30.14,SSE,147,1.0,4.0,57,0.00,,,0.00,VWS V14.01,2013-08-21 16:50:00,
2013-08-21 12:55:00,83.3,68.9,30.14,SE,140,0.0,4.0,62,0.00,,,0.00,VWS V14.01,2013-08-21 16:55:00,
2013-08-21 13:00:00,83.4,69.0,30.14,East,89,0.0,4.0,62,0.00,,,0.00,VWS V14.01,2013-08-21 17:00:00,
2013-08-21 13:05:00,83.7,70.7,30.13,SSE,152,1.0,4.0,65,0.00,,,0.00,VWS V14.01,2013-08-21 17:05:00,
2013-08-21 13:10:00,83.8,68.0,30.13,SSE,149,1.0,4.0,59,0.00,,,0.00,VWS V14.01,2013-08-21 17:10:00,
2013-08-21 13:15:00,83.8,69.4,30.13,SE,141,1.0,4.0,62,0.00,,,0.00,VWS V14.01,2013-08-21 17:15:00,
2013-08-21 13:20:00,83.9,69.5,30.13,SE,141,0.0,4.0,62,0.00,,,0.00,VWS V14.01,2013-08-21 17:20:00,
2013-08-21 13:25:00,84.2,67.8,30.12,SE,141,0.0,4.0,58,0.00,,,0.00,VWS V14.01,2013-08-21 17:25:00,
2013-08-21 13:31:00,84.2,69.3,30.12,SE,135,0.0,1.0,61,0.00,,,0.00,VWS V14.01,2013-08-21 17:31:00,
2013-08-21 13:36:00,84.5,68.1,30.12,SE,134,0.0,1.0,58,0.00,,,0.00,VWS V14.01,2013-08-21 17:36:00,
2013-08-21 13:41:00,84.5,67.6,30.12,ESE,115,0.0,1.0,57,0.00,,,0.00,VWS V14.01,2013-08-21 17:41:00,
2013-08-21 13:46:00,84.6,66.1,30.12,North,351,0.0,4.0,54,0.00,,,0.00,VWS V14.01,2013-08-21 17:46:00,
2013-08-21 13:51:00,84.7,69.8,30.12,North,351,0.0,4.0,61,0.00,,,0.00,VWS V14.01,2013-08-21 17:51:00,
2013-08-21 13:56:00,85.0,66.0,30.12,NNE,17,2.0,4.0,53,0.00,,,0.00,VWS V14.01,2013-08-21 17:56:00,
2013-08-21 14:01:00,85.0,69.6,30.12,North,11,0.0,1.0,60,0.00,,,0.00,VWS V14.01,2013-08-21 18:01:00,
2013-08-21 14:06:00,84.9,65.9,30.12,North,5,3.0,3.0,53,0.00,,,0.00,VWS V14.01,2013-08-21 18:06:00,
2013-08-21 14:11:00,84.6,65.1,30.11,NNE,29,1.0,4.0,52,0.00,,,0.00,VWS V14.01,2013-08-21 18:11:00,
2013-08-21 14:17:00,84.6,69.2,30.11,South,189,1.0,4.0,60,0.00,,,0.00,VWS V14.01,2013-08-21 18:17:00,
2013-08-21 14:22:00,84.9,68.5,30.11,South,174,0.0,4.0,58,0.00,,,0.00,VWS V14.01,2013-08-21 18:22:00,
2013-08-21 14:27:00,85.4,69.4,30.11,South,173,1.0,4.0,59,0.00,,,0.00,VWS V14.01,2013-08-21 18:27:00,
2013-08-21 14:32:00,85.6,67.1,30.10,North,5,1.0,2.0,54,0.00,,,0.00,VWS V14.01,2013-08-21 18:32:00,
2013-08-21 14:37:00,85.7,67.2,30.10,NW,313,1.0,3.0,54,0.00,,,0.00,VWS V14.01,2013-08-21 18:37:00,
2013-08-21 14:42:00,85.4,69.4,30.10,NW,313,1.0,3.0,59,0.00,,,0.00,VWS V14.01,2013-08-21 18:42:00,
2013-08-21 14:47:00,85.4,69.4,30.10,NW,313,0.0,3.0,59,0.00,,,0.00,VWS V14.01,2013-08-21 18:47:00,
2013-08-21 14:52:00,85.8,67.2,30.10,SSE,167,0.0,4.0,54,0.00,,,0.00,VWS V14.01,2013-08-21 18:52:00,
2013-08-21 14:58:00,85.8,67.2,30.10,NNE,30,0.0,4.0,54,0.00,,,0.00,VWS V14.01,2013-08-21 18:58:00,
2013-08-21 15:03:00,85.8,69.3,30.10,NNE,30,0.0,0.0,58,0.00,,,0.00,VWS V14.01,2013-08-21 19:03:00,
2013-08-21 15:08:00,85.8,67.2,30.10,NNE,28,0.0,1.0,54,0.00,,,0.00,VWS V14.01,2013-08-21 19:08:00,
2013-08-21 15:13:00,86.1,68.6,30.10,NE,50,0.0,1.0,56,0.00,,,0.00,VWS V14.01,2013-08-21 19:13:00,
2013-08-21 15:18:00,86.4,67.8,30.09,NE,50,0.0,1.0,54,0.00,,,0.00,VWS V14.01,2013-08-21 19:18:00,
2013-08-21 15:23:00,86.3,70.3,30.09,NE,50,0.0,1.0,59,0.00,,,0.00,VWS V14.01,2013-08-21 19:23:00,
2013-08-21 15:28:00,86.1,70.6,30.09,SSE,152,2.0,2.0,60,0.00,,,0.00,VWS V14.01,2013-08-21 19:28:00,
2013-08-21 15:33:00,85.7,70.2,30.09,East,81,0.0,3.0,60,0.00,,,0.00,VWS V14.01,2013-08-21 19:33:00,
2013-08-21 15:38:00,85.3,68.9,30.09,SSE,153,2.0,5.0,58,0.00,,,0.00,VWS V14.01,2013-08-21 19:38:00,
2013-08-21 15:44:00,84.9,68.5,30.09,ESE,114,0.0,5.0,58,0.00,,,0.00,VWS V14.01,2013-08-21 19:44:00,
2013-08-21 15:49:00,84.7,69.8,30.09,ENE,78,0.0,5.0,61,0.00,,,0.00,VWS V14.01,2013-08-21 19:49:00,
2013-08-21 15:54:00,84.5,69.1,30.09,ENE,78,0.0,5.0,60,0.00,,,0.00,VWS V14.01,2013-08-21 19:54:00,
2013-08-21 15:59:00,84.3,70.3,30.09,ENE,78,0.0,5.0,63,0.00,,,0.00,VWS V14.01,2013-08-21 19:59:00,
2013-08-21 16:04:00,84.1,69.2,30.08,East,80,0.0,2.0,61,0.00,,,0.00,VWS V14.01,2013-08-21 20:04:00,
2013-08-21 16:09:00,83.8,65.4,30.08,East,80,0.0,2.0,54,0.00,,,0.00,VWS V14.01,2013-08-21 20:09:00,
2013-08-21 16:14:00,83.8,70.3,30.08,East,80,0.0,2.0,64,0.00,,,0.00,VWS V14.01,2013-08-21 20:14:00,
2013-08-21 16:19:00,83.5,69.1,30.08,East,80,1.0,2.0,62,0.00,,,0.00,VWS V14.01,2013-08-21 20:19:00,
2013-08-21 16:25:00,83.0,67.7,30.08,SSE,161,1.0,2.0,60,0.00,,,0.00,VWS V14.01,2013-08-21 20:25:00,
2013-08-21 16:30:00,82.8,68.5,30.08,SSE,161,0.0,2.0,62,0.00,,,0.00,VWS V14.01,2013-08-21 20:30:00,
2013-08-21 16:35:00,82.2,66.5,30.08,SSE,161,0.0,1.0,59,0.00,,,0.00,VWS V14.01,2013-08-21 20:35:00,
2013-08-21 16:40:00,81.9,68.1,30.07,SSE,161,0.0,1.0,63,0.00,,,0.00,VWS V14.01,2013-08-21 20:40:00,
2013-08-21 16:45:00,81.5,68.6,30.07,SSE,161,0.0,1.0,65,0.00,,,0.00,VWS V14.01,2013-08-21 20:45:00,
2013-08-21 16:50:00,81.0,68.6,30.07,SSE,161,0.0,1.0,66,0.00,,,0.00,VWS V14.01,2013-08-21 20:50:00,
2013-08-21 16:55:00,80.7,68.7,30.07,SSE,161,0.0,1.0,67,0.00,,,0.00,VWS V14.01,2013-08-21 20:55:00,
2013-08-21 17:00:00,80.2,69.1,30.07,SSE,161,0.0,1.0,69,0.00,,,0.00,VWS V14.01,2013-08-21 21:00:00,
2013-08-21 17:06:00,79.7,68.6,30.07,SSE,161,0.0,0.0,69,0.00,,,0.00,VWS V14.01,2013-08-21 21:06:00,
2013-08-21 17:11:00,79.3,69.1,30.07,SSE,161,0.0,0.0,71,0.00,,,0.00,VWS V14.01,2013-08-21 21:11:00,
2013-08-21 17:16:00,79.1,66.8,30.07,SSE,161,0.0,0.0,66,0.00,,,0.00,VWS V14.01,2013-08-21 21:16:00,
2013-08-21 17:21:00,78.8,68.6,30.07,SSE,161,0.0,0.0,71,0.00,,,0.00,VWS V14.01,2013-08-21 21:21:00,
2013-08-21 17:26:00,78.5,68.7,30.07,SSE,161,0.0,0.0,72,0.00,,,0.00,VWS V14.01,2013-08-21 21:26:00,
2013-08-21 17:31:00,78.2,68.0,30.07,SSE,161,0.0,0.0,71,0.00,,,0.00,VWS V14.01,2013-08-21 21:31:00,
2013-08-21 17:36:00,78.0,68.7,30.07,SSE,161,0.0,0.0,73,0.00,,,0.00,VWS V14.01,2013-08-21 21:36:00,
2013-08-21 17:41:00,77.7,68.8,30.07,SSE,161,0.0,1.0,74,0.00,,,0.00,VWS V14.01,2013-08-21 21:41:00,
2013-08-21 17:46:00,77.3,68.0,30.07,SSE,161,0.0,1.0,73,0.00,,,0.00,VWS V14.01,2013-08-21 21:46:00,
2013-08-21 17:52:00,77.1,68.2,30.07,SSE,161,0.0,1.0,74,0.00,,,0.00,VWS V14.01,2013-08-21 21:52:00,
2013-08-21 17:57:00,76.9,68.4,30.06,SSE,161,0.0,1.0,75,0.00,,,0.00,VWS V14.01,2013-08-21 21:57:00,
2013-08-21 18:02:00,76.5,68.0,30.06,SSE,161,0.0,0.0,75,0.00,,,0.00,VWS V14.01,2013-08-21 22:02:00,
2013-08-21 18:07:00,76.2,67.7,30.06,SSE,161,0.0,0.0,75,0.00,,,0.00,VWS V14.01,2013-08-21 22:07:00,
2013-08-21 18:12:00,76.0,67.9,30.05,SSE,161,0.0,0.0,76,0.00,,,0.00,VWS V14.01,2013-08-21 22:12:00,
2013-08-21 18:17:00,75.7,67.6,30.05,SSE,161,0.0,0.0,76,0.00,,,0.00,VWS V14.01,2013-08-21 22:17:00,
2013-08-21 18:22:00,75.5,67.8,30.05,SSE,161,0.0,0.0,77,0.00,,,0.00,VWS V14.01,2013-08-21 22:22:00,
2013-08-21 18:27:00,75.3,68.3,30.05,SSE,161,0.0,0.0,79,0.00,,,0.00,VWS V14.01,2013-08-21 22:27:00,
2013-08-21 18:33:00,75.1,68.5,30.05,SSE,161,0.0,0.0,80,0.00,,,0.00,VWS V14.01,2013-08-21 22:33:00,
2013-08-21 18:38:00,74.9,69.0,30.05,SSE,161,0.0,0.0,82,0.00,,,0.00,VWS V14.01,2013-08-21 22:38:00,
2013-08-21 18:43:00,74.6,69.1,30.05,SSE,161,0.0,0.0,83,0.00,,,0.00,VWS V14.01,2013-08-21 22:43:00,
2013-08-21 18:48:00,74.4,68.9,30.05,SSE,161,0.0,0.0,83,0.00,,,0.00,VWS V14.01,2013-08-21 22:48:00,
2013-08-21 18:53:00,74.2,68.7,30.05,SSE,161,0.0,0.0,83,0.00,,,0.00,VWS V14.01,2013-08-21 22:53:00,
2013-08-21 18:58:00,74.0,68.9,30.05,SSE,161,0.0,0.0,84,0.00,,,0.00,VWS V14.01,2013-08-21 22:58:00,
2013-08-21 19:03:00,73.8,69.0,30.05,SSE,161,0.0,0.0,85,0.00,,,0.00,VWS V14.01,2013-08-21 23:03:00,
2013-08-21 19:08:00,73.5,68.7,30.05,SSE,161,0.0,0.0,85,0.00,,,0.00,VWS V14.01,2013-08-21 23:08:00,
2013-08-21 19:14:00,73.2,68.4,30.05,SSE,161,0.0,0.0,85,0.00,,,0.00,VWS V14.01,2013-08-21 23:14:00,
2013-08-21 19:19:00,72.9,68.1,30.05,SSE,161,0.0,0.0,85,0.00,,,0.00,VWS V14.01,2013-08-21 23:19:00,
2013-08-21 19:24:00,72.5,68.1,30.05,SSE,161,0.0,0.0,86,0.00,,,0.00,VWS V14.01,2013-08-21 23:24:00,
2013-08-21 19:29:00,72.1,67.7,30.05,SSE,161,0.0,0.0,86,0.00,,,0.00,VWS V14.01,2013-08-21 23:29:00,
2013-08-21 19:34:00,71.7,67.3,30.05,SSE,161,0.0,0.0,86,0.00,,,0.00,VWS V14.01,2013-08-21 23:34:00,
2013-08-21 19:39:00,71.2,66.8,30.05,SSE,161,0.0,0.0,86,0.00,,,0.00,VWS V14.01,2013-08-21 23:39:00,
2013-08-21 19:44:00,70.8,66.7,30.05,SSE,161,0.0,0.0,87,0.00,,,0.00,VWS V14.01,2013-08-21 23:44:00,
2013-08-21 19:49:00,70.4,66.3,30.05,SSE,161,0.0,0.0,87,0.00,,,0.00,VWS V14.01,2013-08-21 23:49:00,
2013-08-21 19:55:00,70.0,66.3,30.05,SSE,161,0.0,0.0,88,0.00,,,0.00,VWS V14.01,2013-08-21 23:55:00,
2013-08-21 20:00:00,69.6,66.2,30.05,SSE,161,0.0,0.0,89,0.00,,,0.00,VWS V14.01,2013-08-22 00:00:00,
2013-08-21 20:05:00,69.2,65.8,30.05,SSE,161,0.0,0.0,89,0.00,,,0.00,VWS V14.01,2013-08-22 00:05:00,
2013-08-21 20:10:00,68.8,65.4,30.05,SSE,161,0.0,0.0,89,0.00,,,0.00,VWS V14.01,2013-08-22 00:10:00,
2013-08-21 20:15:00,68.5,65.5,30.05,SSE,161,0.0,0.0,90,0.00,,,0.00,VWS V14.01,2013-08-22 00:15:00,
2013-08-21 20:20:00,68.2,65.2,30.05,SSE,161,0.0,0.0,90,0.00,,,0.00,VWS V14.01,2013-08-22 00:20:00,
2013-08-21 20:25:00,67.8,65.1,30.05,SSE,161,0.0,0.0,91,0.00,,,0.00,VWS V14.01,2013-08-22 00:25:00,
2013-08-21 20:30:00,67.5,64.8,30.06,SSE,161,0.0,0.0,91,0.00,,,0.00,VWS V14.01,2013-08-22 00:30:00,
2013-08-21 20:36:00,67.3,64.9,30.06,SSE,161,0.0,0.0,92,0.00,,,0.00,VWS V14.01,2013-08-22 00:36:00,
2013-08-21 20:41:00,67.0,64.6,30.06,SSE,161,0.0,0.0,92,0.00,,,0.00,VWS V14.01,2013-08-22 00:41:00,
2013-08-21 20:46:00,66.8,64.7,30.06,SSE,161,0.0,0.0,93,0.00,,,0.00,VWS V14.01,2013-08-22 00:46:00,
2013-08-21 20:51:00,66.6,64.5,30.06,SSE,161,0.0,0.0,93,0.00,,,0.00,VWS V14.01,2013-08-22 00:51:00,
2013-08-21 20:56:00,66.4,64.3,30.06,SSE,161,0.0,0.0,93,0.00,,,0.00,VWS V14.01,2013-08-22 00:56:00,
2013-08-21 21:01:00,66.1,64.3,30.06,SSE,161,0.0,0.0,94,0.00,,,0.00,VWS V14.01,2013-08-22 01:01:00,
2013-08-21 21:06:00,66.0,64.2,30.06,SSE,161,0.0,0.0,94,0.00,,,0.00,VWS V14.01,2013-08-22 01:06:00,
2013-08-21 21:11:00,65.8,64.0,30.06,SSE,161,0.0,0.0,94,0.00,,,0.00,VWS V14.01,2013-08-22 01:11:00,
2013-08-21 21:16:00,65.7,63.9,30.06,SSE,161,0.0,0.0,94,0.00,,,0.00,VWS V14.01,2013-08-22 01:16:00,
2013-08-21 21:22:00,65.5,63.7,30.06,SSE,161,0.0,0.0,94,0.00,,,0.00,VWS V14.01,2013-08-22 01:22:00,
2013-08-21 21:27:00,65.4,63.6,30.07,SSE,161,0.0,0.0,94,0.00,,,0.00,VWS V14.01,2013-08-22 01:27:00,
2013-08-21 21:32:00,65.3,63.5,30.06,SSE,161,0.0,0.0,94,0.00,,,0.00,VWS V14.01,2013-08-22 01:32:00,
2013-08-21 21:37:00,65.1,63.6,30.07,SSE,161,0.0,0.0,95,0.00,,,0.00,VWS V14.01,2013-08-22 01:37:00,
2013-08-21 21:42:00,65.0,63.5,30.06,SSE,161,0.0,0.0,95,0.00,,,0.00,VWS V14.01,2013-08-22 01:42:00,
2013-08-21 21:47:00,64.9,63.4,30.07,SSE,161,0.0,0.0,95,0.00,,,0.00,VWS V14.01,2013-08-22 01:47:00,
2013-08-21 21:52:00,64.9,63.4,30.07,SSE,161,0.0,0.0,95,0.00,,,0.00,VWS V14.01,2013-08-22 01:52:00,
2013-08-21 21:57:00,64.7,63.2,30.06,SSE,161,0.0,0.0,95,0.00,,,0.00,VWS V14.01,2013-08-22 01:57:00,
2013-08-21 22:03:00,64.7,63.5,30.06,SSE,161,0.0,0.0,96,0.00,,,0.00,VWS V14.01,2013-08-22 02:03:00,
2013-08-21 22:08:00,64.6,63.4,30.06,SSE,161,0.0,0.0,96,0.00,,,0.00,VWS V14.01,2013-08-22 02:08:00,
2013-08-21 22:13:00,64.5,63.3,30.06,SSE,161,0.0,0.0,96,0.00,,,0.00,VWS V14.01,2013-08-22 02:13:00,
2013-08-21 22:18:00,64.5,63.3,30.06,SSE,161,0.0,0.0,96,0.00,,,0.00,VWS V14.01,2013-08-22 02:18:00,
2013-08-21 22:23:00,64.4,63.2,30.06,SSE,161,0.0,0.0,96,0.00,,,0.00,VWS V14.01,2013-08-22 02:23:00,
2013-08-21 22:28:00,64.3,63.1,30.07,SSE,161,0.0,0.0,96,0.00,,,0.00,VWS V14.01,2013-08-22 02:28:00,
2013-08-21 22:33:00,64.2,63.0,30.07,SSE,161,0.0,0.0,96,0.00,,,0.00,VWS V14.01,2013-08-22 02:33:00,
2013-08-21 22:38:00,64.1,62.9,30.06,SSE,161,0.0,0.0,96,0.00,,,0.00,VWS V14.01,2013-08-22 02:38:00,
2013-08-21 22:44:00,64.1,62.9,30.06,SSE,161,0.0,0.0,96,0.00,,,0.00,VWS V14.01,2013-08-22 02:44:00,
2013-08-21 22:49:00,64.0,62.8,30.06,SSE,161,0.0,0.0,96,0.00,,,0.00,VWS V14.01,2013-08-22 02:49:00,
2013-08-21 22:54:00,63.9,62.7,30.06,SSE,161,0.0,0.0,96,0.00,,,0.00,VWS V14.01,2013-08-22 02:54:00,
2013-08-21 22:59:00,63.8,62.6,30.06,SSE,161,0.0,0.0,96,0.00,,,0.00,VWS V14.01,2013-08-22 02:59:00,
2013-08-21 23:04:00,63.7,62.5,30.06,SSE,161,0.0,0.0,96,0.00,,,0.00,VWS V14.01,2013-08-22 03:04:00,
2013-08-21 23:09:00,63.7,62.8,30.05,SSE,161,0.0,0.0,97,0.00,,,0.00,VWS V14.01,2013-08-22 03:09:00,
2013-08-21 23:14:00,63.6,62.7,30.05,SSE,161,0.0,0.0,97,0.00,,,0.00,VWS V14.01,2013-08-22 03:14:00,
2013-08-21 23:19:00,63.6,62.7,30.05,SSE,161,0.0,0.0,97,0.00,,,0.00,VWS V14.01,2013-08-22 03:19:00,
2013-08-21 23:24:00,63.5,62.6,30.05,SSE,161,0.0,0.0,97,0.00,,,0.00,VWS V14.01,2013-08-22 03:24:00,
2013-08-21 23:30:00,63.5,62.6,30.04,SSE,161,0.0,0.0,97,0.00,,,0.00,VWS V14.01,2013-08-22 03:30:00,
2013-08-21 23:35:00,63.5,62.6,30.04,SSE,161,0.0,0.0,97,0.00,,,0.00,VWS V14.01,2013-08-22 03:35:00,
2013-08-21 23:40:00,63.4,62.5,30.04,SSE,161,0.0,0.0,97,0.00,,,0.00,VWS V14.01,2013-08-22 03:40:00,
2013-08-21 23:45:00,63.4,62.5,30.04,SSE,161,0.0,0.0,97,0.00,,,0.00,VWS V14.01,2013-08-22 03:45:00,
2013-08-21 23:50:00,63.4,62.5,30.04,SSE,161,0.0,0.0,97,0.00,,,0.00,VWS V14.01,2013-08-22 03:50:00,
2013-08-21 23:55:00,63.3,62.4,30.03,SSE,161,0.0,0.0,97,0.00,,,0.00,VWS V14.01,2013-08-22 03:55:00,